createdAt,value
2023-02-02T00:01:09.692Z,2.97
2023-02-02T00:03:39.622Z,2.93
2023-02-02T00:06:08.268Z,2.47
2023-02-02T00:08:38.142Z,2.90
2023-02-02T00:11:07.189Z,3.13
2023-02-02T00:13:35.412Z,2.10
2023-02-02T00:16:18.525Z,2.97
2023-02-02T00:18:48.166Z,2.37
2023-02-02T00:21:16.408Z,2.53
2023-02-02T00:23:44.698Z,2.63
2023-02-02T00:26:12.998Z,2.93
2023-02-02T00:28:41.451Z,2.10
2023-02-02T00:31:09.873Z,2.30
2023-02-02T00:33:38.189Z,2.47
2023-02-02T00:36:08.264Z,2.43
2023-02-02T00:38:38.035Z,2.30
2023-02-02T00:41:07.247Z,2.30
2023-02-02T00:43:35.461Z,2.57
2023-02-02T00:46:02.762Z,2.50
2023-02-02T00:48:31.062Z,2.70
2023-02-02T00:50:59.365Z,2.13
2023-02-02T00:53:28.987Z,2.33
2023-02-02T00:55:57.209Z,2.30
2023-02-02T00:58:25.517Z,2.53
2023-02-02T01:00:53.919Z,3.20
2023-02-02T01:03:22.176Z,2.00
2023-02-02T01:05:52.010Z,2.23
2023-02-02T01:08:20.321Z,2.20
2023-02-02T01:10:49.906Z,2.17
2023-02-02T01:13:18.157Z,2.73
2023-02-02T01:15:46.419Z,2.33
2023-02-02T01:18:14.790Z,2.83
2023-02-02T01:20:43.019Z,2.57
2023-02-02T01:23:11.229Z,2.83
2023-02-02T01:25:39.461Z,2.67
2023-02-02T01:28:09.050Z,2.70
2023-02-02T01:30:37.413Z,2.90
2023-02-02T01:33:05.792Z,2.93
2023-02-02T01:35:33.999Z,3.30
2023-02-02T01:38:02.189Z,3.03
2023-02-02T01:40:30.694Z,2.73
2023-02-02T01:42:58.886Z,2.70
2023-02-02T01:45:29.598Z,3.47
2023-02-02T01:47:59.675Z,2.93
2023-02-02T01:50:30.166Z,2.67
2023-02-02T01:52:59.915Z,2.80
2023-02-02T01:55:29.426Z,3.40
2023-02-02T01:57:59.046Z,3.50
2023-02-02T02:00:28.700Z,4.03
2023-02-02T02:03:00.714Z,3.83
2023-02-02T02:05:30.725Z,4.03
2023-02-02T02:08:03.294Z,3.30
2023-02-02T02:10:31.472Z,4.00
2023-02-02T02:13:00.396Z,3.33
2023-02-02T02:15:49.231Z,4.03
2023-02-02T02:18:24.737Z,3.10
2023-02-02T02:21:23.753Z,3.30
2023-02-02T02:24:27.514Z,3.43
2023-02-02T02:27:00.585Z,4.10
2023-02-02T02:29:35.820Z,3.57
2023-02-02T02:32:24.145Z,3.83
2023-02-02T02:34:57.162Z,3.77
2023-02-02T02:37:31.400Z,3.93
2023-02-02T02:40:01.402Z,4.23
2023-02-02T02:42:31.863Z,3.63
2023-02-02T02:45:02.321Z,3.70
2023-02-02T02:47:32.616Z,4.10
2023-02-02T02:50:00.833Z,4.60
2023-02-02T02:52:29.163Z,4.10
2023-02-02T02:54:58.217Z,4.17
2023-02-02T02:57:35.971Z,3.90
2023-02-02T03:00:09.176Z,4.03
2023-02-02T03:02:44.179Z,4.10
2023-02-02T03:05:19.472Z,4.17
2023-02-02T03:07:50.573Z,3.50
2023-02-02T03:10:20.785Z,4.50
2023-02-02T03:12:50.066Z,4.53
2023-02-02T03:15:18.956Z,4.00
2023-02-02T03:17:49.417Z,4.60
2023-02-02T03:20:18.116Z,4.27
2023-02-02T03:22:46.456Z,4.70
2023-02-02T03:25:15.929Z,4.13
2023-02-02T03:27:44.112Z,4.40
2023-02-02T03:30:14.215Z,5.07
2023-02-02T03:32:42.742Z,5.73
2023-02-02T03:35:12.525Z,4.17
2023-02-02T03:37:40.804Z,4.30
2023-02-02T03:40:09.376Z,4.00
2023-02-02T03:42:37.557Z,4.40
2023-02-02T03:45:06.398Z,4.37
2023-02-02T03:47:34.696Z,3.93
2023-02-02T03:50:02.931Z,3.90
2023-02-02T03:52:32.483Z,4.57
2023-02-02T03:55:00.721Z,4.07
2023-02-02T03:57:28.963Z,4.33
2023-02-02T03:59:57.227Z,4.00
2023-02-02T04:02:25.451Z,4.97
2023-02-02T04:04:53.653Z,4.30
2023-02-02T04:07:21.855Z,3.97
2023-02-02T04:09:51.385Z,4.90
2023-02-02T04:12:19.586Z,4.60
2023-02-02T04:14:47.795Z,4.63
2023-02-02T04:17:16.068Z,4.33
2023-02-02T04:19:44.249Z,5.00
2023-02-02T04:22:12.447Z,4.70
2023-02-02T04:24:40.606Z,4.80
2023-02-02T04:27:10.137Z,5.00
2023-02-02T04:29:38.317Z,5.40
2023-02-02T04:32:06.690Z,5.00
2023-02-02T04:34:34.862Z,5.00
2023-02-02T04:37:03.043Z,5.07
2023-02-02T04:39:31.605Z,5.47
2023-02-02T04:41:59.847Z,5.37
2023-02-02T04:44:29.489Z,5.57
2023-02-02T04:46:57.676Z,4.57
2023-02-02T04:49:25.921Z,5.90
2023-02-02T04:51:54.135Z,4.07
2023-02-02T04:54:22.343Z,4.37
2023-02-02T04:56:50.534Z,4.43
2023-02-02T04:59:18.707Z,3.70
2023-02-02T05:01:48.366Z,4.63
2023-02-02T05:04:16.644Z,4.40
2023-02-02T05:06:44.932Z,4.00
2023-02-02T05:09:14.941Z,4.30
2023-02-02T05:11:44.477Z,4.40
2023-02-02T05:14:13.052Z,4.50
2023-02-02T05:16:41.378Z,4.80
2023-02-02T05:19:12.111Z,4.87
2023-02-02T05:21:40.324Z,4.43
2023-02-02T05:24:08.653Z,4.67
2023-02-02T05:26:36.836Z,4.50
2023-02-02T05:29:06.731Z,4.33
2023-02-02T05:31:35.081Z,4.53
2023-02-02T05:34:03.400Z,4.10
2023-02-02T05:36:32.978Z,3.73
2023-02-02T05:39:01.347Z,3.83
2023-02-02T05:41:29.545Z,4.37
2023-02-02T05:43:57.823Z,3.80
2023-02-02T05:46:25.993Z,3.47
2023-02-02T05:48:54.373Z,3.00
2023-02-02T05:51:23.981Z,2.87
2023-02-02T05:53:53.544Z,3.20
2023-02-02T05:56:21.774Z,3.90
2023-02-02T05:58:50.278Z,3.23
2023-02-02T06:01:19.857Z,2.90
2023-02-02T06:03:48.152Z,2.63
2023-02-02T06:06:16.478Z,2.67
2023-02-02T06:08:44.736Z,3.07
2023-02-02T06:11:14.811Z,3.13
2023-02-02T06:13:45.771Z,3.47
2023-02-02T06:16:14.369Z,3.27
2023-02-02T06:18:42.621Z,3.40
2023-02-02T06:21:11.693Z,3.53
2023-02-02T06:23:45.524Z,4.87
2023-02-02T06:26:15.568Z,6.23
2023-02-02T06:28:43.778Z,5.10
2023-02-02T06:31:13.343Z,5.20
2023-02-02T06:33:41.584Z,4.50
2023-02-02T06:36:09.884Z,3.70
2023-02-02T06:38:38.080Z,4.30
2023-02-02T06:41:06.893Z,3.90
2023-02-02T06:43:36.500Z,4.73
2023-02-02T06:46:04.755Z,5.10
2023-02-02T06:48:33.101Z,7.33
2023-02-02T06:51:01.564Z,4.43
2023-02-02T06:53:29.872Z,4.03
2023-02-02T06:55:58.687Z,4.20
2023-02-02T06:58:26.975Z,4.30
2023-02-02T07:00:56.556Z,4.20
2023-02-02T07:03:24.746Z,4.53
2023-02-02T07:05:52.926Z,3.47
2023-02-02T07:08:21.391Z,3.33
2023-02-02T07:11:12.001Z,3.27
2023-02-02T07:13:37.857Z,3.10
2023-02-02T07:16:08.059Z,2.67
2023-02-02T07:18:37.085Z,2.73
2023-02-02T07:21:05.367Z,2.80
2023-02-02T07:23:34.806Z,2.50
2023-02-02T07:26:03.702Z,2.60
2023-02-02T07:28:32.050Z,3.00
2023-02-02T07:31:00.426Z,4.80
2023-02-02T07:33:30.029Z,2.67
2023-02-02T07:35:58.348Z,4.17
2023-02-02T07:38:26.585Z,10.53
2023-02-02T07:40:54.795Z,3.03
2023-02-02T07:43:23.034Z,3.00
2023-02-02T07:45:51.279Z,3.23
2023-02-02T07:48:19.562Z,3.00
2023-02-02T07:50:49.187Z,3.57
2023-02-02T07:53:17.433Z,3.20
2023-02-02T07:55:45.678Z,3.43
2023-02-02T07:58:13.897Z,3.20
2023-02-02T08:00:42.496Z,3.50
2023-02-02T08:03:12.791Z,4.20
2023-02-02T08:05:41.015Z,4.00
2023-02-02T08:08:10.624Z,4.00
2023-02-02T08:10:38.836Z,4.13
2023-02-02T08:13:07.039Z,3.63
2023-02-02T08:15:35.367Z,3.67
2023-02-02T08:18:03.616Z,3.50
2023-02-02T08:20:31.859Z,4.20
2023-02-02T08:23:00.127Z,3.37
2023-02-02T08:25:29.691Z,4.10
2023-02-02T08:28:01.258Z,3.70
2023-02-02T08:30:29.573Z,3.23
2023-02-02T08:32:57.855Z,3.37
2023-02-02T08:35:26.447Z,2.87
2023-02-02T08:37:54.827Z,3.33
2023-02-02T08:40:23.275Z,3.43
2023-02-02T08:42:55.943Z,3.00
2023-02-02T08:46:03.094Z,2.83
2023-02-02T08:48:12.891Z,4.13
2023-02-02T08:50:41.357Z,6.87
2023-02-02T08:53:09.658Z,3.87
2023-02-02T08:55:37.861Z,4.17
2023-02-02T08:58:07.579Z,3.73
2023-02-02T09:00:35.817Z,5.20
2023-02-02T09:03:05.048Z,3.57
2023-02-02T09:05:33.398Z,4.03
2023-02-02T09:08:01.603Z,3.50
2023-02-02T09:10:31.937Z,3.87
2023-02-02T09:13:00.192Z,3.97
2023-02-02T09:15:29.916Z,4.00
2023-02-02T09:17:58.231Z,3.40
2023-02-02T09:20:26.466Z,3.33
2023-02-02T09:22:57.042Z,3.30
2023-02-02T09:25:27.515Z,3.00
2023-02-02T09:27:55.911Z,2.90
2023-02-02T09:30:24.149Z,3.20
2023-02-02T09:32:53.791Z,2.97
2023-02-02T09:35:22.261Z,3.30
2023-02-02T09:37:50.801Z,4.03
2023-02-02T09:40:20.947Z,4.00
2023-02-02T09:43:01.092Z,4.10
2023-02-02T09:45:34.442Z,4.40
2023-02-02T09:48:10.760Z,5.40
2023-02-02T09:50:42.472Z,4.77
2023-02-02T09:53:15.057Z,3.77
2023-02-02T09:55:45.140Z,4.00
2023-02-02T09:58:16.205Z,3.80
2023-02-02T10:00:46.890Z,3.30
2023-02-02T10:03:19.754Z,3.20
2023-02-02T10:05:53.005Z,3.37
2023-02-02T10:08:34.716Z,3.50
2023-02-02T10:11:06.464Z,3.90
2023-02-02T10:13:38.161Z,3.50
2023-02-02T10:16:08.812Z,3.17
2023-02-02T10:18:42.593Z,3.47
2023-02-02T10:21:13.323Z,3.20
2023-02-02T10:23:42.612Z,4.00
2023-02-02T10:26:16.205Z,3.57
2023-02-02T10:28:45.519Z,3.03
2023-02-02T10:31:20.533Z,3.87
2023-02-02T10:33:56.360Z,3.50
2023-02-02T10:36:28.456Z,3.70
2023-02-02T10:39:00.009Z,3.90
2023-02-02T10:41:32.625Z,2.70
2023-02-02T10:44:05.439Z,3.50
2023-02-02T10:46:36.497Z,3.20
2023-02-02T10:49:14.832Z,3.77
2023-02-02T10:51:46.775Z,4.07
2023-02-02T10:54:21.225Z,3.37
2023-02-02T10:56:53.823Z,3.20
2023-02-02T10:59:24.581Z,3.10
2023-02-02T11:01:52.903Z,2.97
2023-02-02T11:04:41.517Z,2.80
2023-02-02T11:07:09.789Z,2.80
2023-02-02T11:09:41.264Z,3.73
2023-02-02T11:12:15.391Z,3.13
2023-02-02T11:14:46.849Z,3.03
2023-02-02T11:17:20.613Z,2.97
2023-02-02T11:19:50.871Z,2.50
2023-02-02T11:22:28.287Z,2.77
2023-02-02T11:24:57.102Z,1.83
2023-02-02T11:27:27.287Z,2.83
2023-02-02T11:29:56.487Z,3.07
2023-02-02T11:32:29.916Z,2.90
2023-02-02T11:35:15.693Z,2.70
2023-02-02T11:37:54.384Z,2.60
2023-02-02T11:40:28.749Z,2.57
2023-02-02T11:42:57.960Z,3.00
2023-02-02T11:45:31.038Z,3.23
2023-02-02T11:48:02.947Z,4.17
2023-02-02T11:50:32.933Z,3.87
2023-02-02T11:53:01.402Z,3.30
2023-02-02T11:55:30.816Z,2.90
2023-02-02T11:58:12.336Z,2.90
2023-02-02T12:00:48.712Z,2.90
2023-02-02T12:03:25.103Z,3.60
2023-02-02T12:05:55.155Z,2.70
2023-02-02T12:08:23.501Z,3.07
2023-02-02T12:11:02.313Z,3.53
2023-02-02T12:13:44.401Z,3.00
2023-02-02T12:16:19.719Z,2.93
2023-02-02T12:18:56.771Z,4.77
2023-02-02T12:21:35.412Z,2.83
2023-02-02T12:24:12.868Z,2.97
2023-02-02T12:26:44.002Z,2.80
2023-02-02T12:29:27.361Z,4.70
2023-02-02T12:32:01.992Z,4.60
2023-02-02T12:34:35.574Z,4.40
2023-02-02T12:37:11.951Z,3.90
2023-02-02T12:39:47.133Z,2.90
2023-02-02T12:42:30.453Z,3.57
2023-02-02T12:45:09.853Z,4.33
2023-02-02T12:47:42.676Z,3.70
2023-02-02T12:50:18.633Z,2.33
2023-02-02T12:52:55.422Z,3.10
2023-02-02T12:55:25.144Z,3.53
2023-02-02T12:58:09.269Z,3.07
2023-02-02T13:00:48.716Z,2.90
2023-02-02T13:03:23.788Z,3.77
2023-02-02T13:05:57.430Z,2.63
2023-02-02T13:08:29.437Z,3.17
2023-02-02T13:10:59.924Z,3.00
2023-02-02T13:13:31.628Z,3.30
2023-02-02T13:16:02.846Z,3.00
2023-02-02T13:18:33.579Z,4.03
2023-02-02T13:21:03.762Z,2.57
2023-02-02T13:23:35.546Z,3.10
2023-02-02T13:28:40.007Z,3.30
2023-02-02T13:31:13.748Z,2.73
2023-02-02T13:33:43.699Z,2.87
2023-02-02T13:36:15.966Z,3.00
2023-02-02T13:38:46.030Z,3.80
2023-02-02T13:41:16.162Z,3.17
2023-02-02T13:43:47.685Z,2.70
2023-02-02T13:46:22.556Z,3.77
2023-02-02T13:48:55.260Z,3.60
2023-02-02T13:51:41.625Z,2.30
2023-02-02T13:54:19.728Z,4.00
2023-02-02T13:56:53.769Z,2.80
2023-02-02T13:59:34.053Z,2.90
2023-02-02T14:02:02.577Z,2.67
2023-02-02T14:04:31.998Z,2.77
2023-02-02T14:09:33.355Z,3.10
2023-02-02T14:12:02.925Z,2.90
2023-02-02T14:14:35.228Z,3.13
2023-02-02T14:17:04.730Z,3.50
2023-02-02T14:19:52.600Z,3.03
2023-02-02T14:22:22.521Z,3.87
2023-02-02T14:24:53.615Z,3.03
2023-02-02T14:27:39.775Z,3.27
2023-02-02T14:30:17.523Z,3.30
2023-02-02T14:32:45.853Z,3.63
2023-02-02T14:35:32.973Z,4.30
2023-02-02T14:38:05.889Z,4.03
2023-02-02T14:40:42.078Z,5.07
2023-02-02T14:43:35.819Z,6.40
2023-02-02T14:46:22.579Z,9.40
2023-02-02T14:49:07.934Z,8.40
2023-02-02T14:51:46.844Z,7.33
2023-02-02T14:54:20.484Z,8.73
2023-02-02T14:56:51.427Z,9.07
2023-02-02T14:59:21.545Z,10.20
2023-02-02T15:01:55.962Z,9.37
2023-02-02T15:04:27.838Z,9.73
2023-02-02T15:06:56.604Z,9.97
2023-02-02T15:09:42.841Z,8.17
2023-02-02T15:12:19.266Z,6.07
2023-02-02T15:14:51.585Z,6.50
2023-02-02T15:17:24.402Z,6.17
2023-02-02T15:19:56.745Z,5.83
2023-02-02T15:22:28.819Z,5.53
2023-02-02T15:24:58.596Z,5.90
2023-02-02T15:27:28.669Z,5.30
2023-02-02T15:29:58.435Z,4.83
2023-02-02T15:32:28.412Z,5.23
2023-02-02T15:35:01.586Z,5.30
2023-02-02T15:37:39.960Z,5.20
2023-02-02T15:40:10.279Z,4.90
2023-02-02T15:42:55.443Z,4.60
2023-02-02T15:45:39.796Z,5.17
2023-02-02T15:48:09.205Z,4.93
2023-02-02T15:50:37.748Z,4.70
2023-02-02T15:53:06.338Z,4.83
2023-02-02T15:55:35.909Z,4.47
2023-02-02T15:58:05.572Z,5.43
2023-02-02T16:00:35.807Z,5.43
2023-02-02T16:03:05.515Z,5.10
2023-02-02T16:05:45.469Z,4.97
2023-02-02T16:08:18.590Z,5.27
2023-02-02T16:10:48.084Z,5.53
2023-02-02T16:13:25.365Z,5.83
2023-02-02T16:15:57.211Z,5.67
2023-02-02T16:18:25.504Z,5.70
2023-02-02T16:20:54.837Z,5.93
2023-02-02T16:23:28.042Z,6.27
2023-02-02T16:25:57.675Z,6.57
2023-02-02T16:28:27.962Z,6.33
2023-02-02T16:30:56.518Z,7.77
2023-02-02T16:33:45.423Z,6.90
2023-02-02T16:36:25.003Z,7.20
2023-02-02T16:38:54.714Z,7.10
2023-02-02T16:41:32.121Z,7.90
2023-02-02T16:44:15.283Z,7.90
2023-02-02T16:46:47.415Z,6.53
2023-02-02T16:49:17.881Z,7.27
2023-02-02T16:51:47.405Z,7.40
2023-02-02T16:54:20.366Z,7.40
2023-02-02T16:56:50.370Z,7.17
2023-02-02T16:59:20.792Z,7.17
2023-02-02T17:01:52.098Z,7.13
2023-02-02T17:04:21.484Z,7.63
2023-02-02T17:06:53.132Z,8.73
2023-02-02T17:09:29.490Z,7.67
2023-02-02T17:12:02.129Z,8.47
2023-02-02T17:14:32.353Z,7.80
2023-02-02T17:17:07.120Z,8.83
2023-02-02T17:19:35.418Z,8.70
2023-02-02T17:22:06.107Z,8.30
2023-02-02T17:24:34.438Z,8.60
2023-02-02T17:27:03.271Z,8.73
2023-02-02T17:29:31.505Z,7.60
2023-02-02T17:31:59.713Z,8.10
2023-02-02T17:34:30.863Z,8.47
2023-02-02T17:37:00.149Z,9.17
2023-02-02T17:39:28.368Z,9.07
2023-02-02T17:41:56.563Z,9.50
2023-02-02T17:44:24.825Z,10.47
2023-02-02T17:46:53.078Z,10.10
2023-02-02T17:49:21.295Z,10.03
2023-02-02T17:51:50.887Z,10.73
2023-02-02T17:54:19.181Z,10.87
2023-02-02T17:56:47.785Z,11.37
2023-02-02T17:59:15.988Z,11.73
2023-02-02T18:01:45.483Z,13.10
2023-02-02T18:04:14.826Z,11.90
2023-02-02T18:06:43.005Z,13.20
2023-02-02T18:09:12.583Z,12.00
2023-02-02T18:11:42.505Z,11.77
2023-02-02T18:14:11.219Z,11.87
2023-02-02T18:16:39.536Z,12.27
2023-02-02T18:19:07.746Z,12.63
2023-02-02T18:21:36.040Z,13.03
2023-02-02T18:24:04.251Z,12.43
2023-02-02T18:26:34.637Z,11.90
2023-02-02T18:29:02.882Z,12.03
2023-02-02T18:31:31.233Z,11.97
2023-02-02T18:33:59.550Z,12.07
2023-02-02T18:36:27.842Z,11.30
2023-02-02T18:38:58.065Z,10.47
2023-02-02T18:41:26.385Z,10.73
2023-02-02T18:43:56.848Z,10.53
2023-02-02T18:46:26.619Z,9.67
2023-02-02T18:48:54.890Z,9.93
2023-02-02T18:51:23.124Z,10.07
2023-02-02T18:53:51.377Z,9.10
2023-02-02T18:56:19.669Z,10.10
2023-02-02T18:58:48.319Z,10.73
2023-02-02T19:01:18.942Z,10.97
2023-02-02T19:03:49.362Z,11.13
2023-02-02T19:06:35.103Z,11.87
2023-02-02T19:09:03.533Z,12.73
2023-02-02T19:11:36.722Z,13.13
2023-02-02T19:14:07.673Z,14.23
2023-02-02T19:16:37.377Z,14.47
2023-02-02T19:19:07.598Z,15.83
2023-02-02T19:21:35.903Z,15.33
2023-02-02T19:24:04.094Z,15.70
2023-02-02T19:26:33.015Z,16.20
2023-02-02T19:29:03.043Z,16.50
2023-02-02T19:31:31.304Z,17.50
2023-02-02T19:34:03.598Z,17.17
2023-02-02T19:36:32.011Z,18.37
2023-02-02T19:39:03.235Z,17.77
2023-02-02T19:41:31.586Z,17.20
2023-02-02T19:44:00.677Z,18.23
2023-02-02T19:46:29.688Z,18.33
2023-02-02T19:49:03.540Z,18.70
2023-02-02T19:51:39.666Z,19.47
2023-02-02T19:54:25.763Z,18.60
2023-02-02T19:56:54.675Z,18.63
2023-02-02T19:59:24.061Z,19.27
2023-02-02T20:01:52.915Z,20.00
2023-02-02T20:04:21.590Z,20.37
2023-02-02T20:06:59.117Z,21.43
2023-02-02T20:09:31.600Z,20.33
2023-02-02T20:12:00.478Z,20.77
2023-02-02T20:14:30.259Z,20.73
2023-02-02T20:17:01.180Z,20.97
2023-02-02T20:19:31.268Z,21.63
2023-02-02T20:22:01.111Z,20.97
2023-02-02T20:24:32.745Z,20.77
2023-02-02T20:27:04.752Z,21.80
2023-02-02T20:29:39.100Z,20.87
2023-02-02T20:32:09.829Z,20.43
2023-02-02T20:34:42.212Z,19.53
2023-02-02T20:37:18.065Z,19.83
2023-02-02T20:39:52.120Z,20.03
2023-02-02T20:42:20.345Z,20.10
2023-02-02T20:44:48.750Z,20.43
2023-02-02T20:47:17.152Z,21.03
2023-02-02T20:49:45.667Z,20.17
2023-02-02T20:52:21.474Z,19.77
2023-02-02T20:54:51.540Z,19.40
2023-02-02T20:57:19.973Z,19.13
2023-02-02T20:59:48.302Z,20.53
2023-02-02T21:02:19.306Z,19.87
2023-02-02T21:04:48.334Z,19.50
2023-02-02T21:07:17.410Z,19.37
2023-02-02T21:09:45.740Z,19.00
2023-02-02T21:12:15.418Z,18.80
2023-02-02T21:14:44.907Z,19.73
2023-02-02T21:17:15.681Z,18.37
2023-02-02T21:19:44.793Z,18.20
2023-02-02T21:22:13.463Z,17.13
2023-02-02T21:24:42.623Z,18.13
2023-02-02T21:27:11.200Z,17.80
2023-02-02T21:29:40.768Z,17.00
2023-02-02T21:32:09.168Z,16.90
2023-02-02T21:34:38.101Z,16.57
2023-02-02T21:37:12.099Z,15.60
2023-02-02T21:39:42.317Z,15.03
2023-02-02T21:42:15.419Z,14.97
2023-02-02T21:44:45.885Z,15.33
2023-02-02T21:47:24.279Z,15.37
2023-02-02T21:49:52.672Z,15.53
2023-02-02T21:52:21.409Z,14.50
2023-02-02T21:54:49.981Z,13.90
2023-02-02T21:57:19.189Z,14.83
2023-02-02T21:59:53.080Z,13.83
2023-02-02T22:02:38.780Z,13.57
2023-02-02T22:05:17.801Z,15.07
2023-02-02T22:07:47.260Z,13.33
2023-02-02T22:10:25.474Z,13.73
2023-02-02T22:12:53.791Z,13.47
2023-02-02T22:15:27.502Z,14.50
2023-02-02T22:17:56.390Z,13.60
2023-02-02T22:20:31.129Z,13.57
2023-02-02T22:22:59.333Z,12.27
2023-02-02T22:25:32.236Z,12.33
2023-02-02T22:28:01.326Z,12.50
2023-02-02T22:30:35.217Z,11.57
2023-02-02T22:33:03.798Z,12.50
2023-02-02T22:35:32.017Z,11.03
2023-02-02T22:38:00.235Z,12.07
2023-02-02T22:40:28.923Z,11.10
2023-02-02T22:42:58.169Z,10.80
2023-02-02T22:45:26.519Z,10.83
2023-02-02T22:47:56.363Z,10.83
2023-02-02T22:50:25.656Z,10.93
2023-02-02T22:52:54.239Z,10.47
2023-02-02T22:55:22.827Z,10.67
2023-02-02T22:57:51.088Z,11.07
2023-02-02T23:00:21.106Z,10.87
2023-02-02T23:02:49.582Z,10.87
2023-02-02T23:05:20.024Z,10.57
2023-02-02T23:07:48.869Z,10.00
2023-02-02T23:10:17.675Z,10.47
2023-02-02T23:12:45.966Z,10.77
2023-02-02T23:15:14.784Z,10.20
2023-02-02T23:17:43.427Z,10.17
2023-02-02T23:20:15.361Z,10.63
2023-02-02T23:22:45.001Z,10.80
2023-02-02T23:25:13.312Z,10.17
2023-02-02T23:27:41.684Z,10.87
2023-02-02T23:30:11.122Z,11.10
2023-02-02T23:32:39.307Z,11.40
2023-02-02T23:35:10.588Z,11.30
2023-02-02T23:37:39.524Z,11.83
2023-02-02T23:40:09.907Z,11.17
2023-02-02T23:42:38.413Z,10.97
2023-02-02T23:45:07.166Z,10.87
2023-02-02T23:47:35.931Z,11.40
2023-02-02T23:50:05.269Z,11.07
2023-02-02T23:52:33.506Z,10.87
2023-02-02T23:55:01.968Z,10.80
2023-02-02T23:57:33.667Z,10.77
